Terminal Aerodrome Forecast
Issued by NWS

Home | Current Version | Previous Version | Text Only | Print | Product List | Glossary Off
Versions: 1 2 3 4 5 6 7 8 9 10 11 12

000
FTUS45 KGGW 180500
TAFOLF
TAF
KOLF 180528Z 1806/1906 07012KT 6SM -RA SCT030 OVC050
     FM181000 08011KT P6SM VCSH SCT070 BKN120
     FM181830 13011KT 6SM -RA SCT040 OVC060
     FM182300 27013G19KT P6SM FEW070 SCT250=

USA.gov is the U.S. government's official web portal to all federal, state and local government web resources and services.